createdAt,value
2017-12-22T05:00:53.037Z,0
2017-12-22T05:01:18.559Z,0
2017-12-22T05:01:44.043Z,0
2017-12-22T05:02:09.536Z,0
2017-12-22T05:02:35.012Z,0
2017-12-22T05:03:00.549Z,0
2017-12-22T05:03:26.015Z,0
2017-12-22T05:03:51.487Z,0
2017-12-22T05:04:17.006Z,0
2017-12-22T05:04:42.522Z,0
2017-12-22T05:05:08.028Z,0
2017-12-22T05:05:33.458Z,0
2017-12-22T05:05:58.945Z,0
2017-12-22T05:06:24.435Z,0
2017-12-22T05:06:49.915Z,0
2017-12-22T05:07:15.380Z,0
2017-12-22T05:07:40.879Z,0
2017-12-22T05:08:06.412Z,0
2017-12-22T05:08:31.936Z,0
2017-12-22T05:08:57.432Z,0
2017-12-22T05:09:22.977Z,0
2017-12-22T05:09:48.474Z,0
2017-12-22T05:10:13.953Z,0
2017-12-22T05:10:39.415Z,0
2017-12-22T05:11:04.951Z,0
2017-12-22T05:11:30.447Z,0
2017-12-22T05:11:55.966Z,0
2017-12-22T05:12:21.449Z,0
2017-12-22T05:12:46.987Z,0
2017-12-22T05:13:12.470Z,0
2017-12-22T05:13:37.974Z,0
2017-12-22T05:14:03.511Z,0
2017-12-22T05:14:28.996Z,0
2017-12-22T05:14:54.504Z,0
2017-12-22T05:15:19.973Z,0
2017-12-22T05:15:45.478Z,0
2017-12-22T05:16:10.932Z,0
2017-12-22T05:16:36.463Z,0
2017-12-22T05:17:01.980Z,0
2017-12-22T05:17:27.471Z,0
2017-12-22T05:17:52.987Z,0
2017-12-22T05:18:18.457Z,0
2017-12-22T05:18:43.997Z,0
2017-12-22T05:19:09.502Z,0
2017-12-22T05:19:34.990Z,0
2017-12-22T05:20:00.533Z,0
2017-12-22T05:20:26.041Z,0
2017-12-22T05:20:51.592Z,0
2017-12-22T05:21:17.097Z,0
2017-12-22T05:21:42.585Z,0
2017-12-22T05:22:08.052Z,0
2017-12-22T05:22:33.549Z,0
2017-12-22T05:22:59.019Z,0
2017-12-22T05:23:24.540Z,0
2017-12-22T05:23:50.019Z,0
2017-12-22T05:24:15.505Z,0
2017-12-22T05:24:41.017Z,0
2017-12-22T05:25:06.540Z,0
2017-12-22T05:25:32.008Z,0
2017-12-22T05:25:57.538Z,0
2017-12-22T05:27:16.003Z,0
2017-12-22T05:27:41.497Z,0
2017-12-22T05:28:06.998Z,0
2017-12-22T05:28:32.494Z,0
2017-12-22T05:28:57.995Z,0
2017-12-22T05:29:23.497Z,0
2017-12-22T05:29:49.009Z,0
2017-12-22T05:30:14.516Z,0
2017-12-22T05:30:40.001Z,0
2017-12-22T05:31:05.525Z,0
2017-12-22T05:31:31.020Z,0
2017-12-22T05:31:56.516Z,0
2017-12-22T05:32:21.985Z,0
2017-12-22T05:32:47.484Z,0
2017-12-22T05:33:12.978Z,0
2017-12-22T05:33:38.489Z,0
2017-12-22T05:34:03.950Z,0
2017-12-22T05:34:29.432Z,0
2017-12-22T05:34:54.938Z,0
2017-12-22T05:36:24.091Z,0
2017-12-22T05:36:49.601Z,0
2017-12-22T05:37:15.097Z,0
2017-12-22T05:37:40.606Z,0
2017-12-22T05:38:06.088Z,0
2017-12-22T05:38:31.615Z,0
2017-12-22T05:38:57.101Z,0
2017-12-22T05:39:22.601Z,0
2017-12-22T05:39:48.094Z,0
2017-12-22T05:40:13.665Z,0
2017-12-22T05:40:39.121Z,0
2017-12-22T05:41:04.601Z,0
2017-12-22T05:41:30.102Z,0
2017-12-22T05:41:55.566Z,0
2017-12-22T05:42:21.063Z,0
2017-12-22T05:42:46.576Z,0
2017-12-22T05:43:12.090Z,0
2017-12-22T05:43:37.595Z,0
2017-12-22T05:44:03.110Z,0
2017-12-22T05:44:28.552Z,0
2017-12-22T05:44:54.051Z,0
2017-12-22T05:45:19.588Z,0
2017-12-22T05:45:45.066Z,0
2017-12-22T05:46:10.549Z,0
2017-12-22T05:46:36.062Z,0
2017-12-22T05:47:01.573Z,0
2017-12-22T05:47:27.059Z,0
2017-12-22T05:47:52.515Z,0
2017-12-22T05:48:18.028Z,0
2017-12-22T05:48:43.517Z,0
2017-12-22T05:50:12.126Z,0
2017-12-22T05:50:37.607Z,0
2017-12-22T05:51:03.125Z,0
2017-12-22T05:52:31.746Z,0
2017-12-22T05:52:57.254Z,0
2017-12-22T05:53:22.732Z,0
2017-12-22T05:53:48.228Z,0
2017-12-22T05:54:13.711Z,0
2017-12-22T05:54:39.206Z,0
2017-12-22T05:55:04.694Z,0
2017-12-22T05:55:30.176Z,0
2017-12-22T05:55:55.684Z,0
2017-12-22T05:56:21.156Z,0
2017-12-22T05:56:46.637Z,0
2017-12-22T05:57:12.158Z,0
2017-12-22T05:57:37.646Z,0
2017-12-22T05:58:03.140Z,0
2017-12-22T05:58:28.633Z,0
2017-12-22T05:58:54.122Z,0
2017-12-22T05:59:19.610Z,0
2017-12-22T05:59:45.116Z,0
2017-12-22T06:00:10.566Z,0
2017-12-22T06:00:36.031Z,0
2017-12-22T06:01:01.544Z,0
2017-12-22T06:01:27.053Z,0
2017-12-22T06:01:52.551Z,0
2017-12-22T06:02:18.049Z,0
2017-12-22T06:02:43.507Z,0
2017-12-22T06:03:09.014Z,0
2017-12-22T06:03:34.498Z,0
2017-12-22T06:04:00.007Z,0
2017-12-22T06:04:25.543Z,0
2017-12-22T06:04:51.033Z,0
2017-12-22T06:05:16.481Z,0
2017-12-22T06:05:42.002Z,0
2017-12-22T06:06:07.490Z,0
2017-12-22T06:06:32.958Z,0
2017-12-22T06:06:58.475Z,0
2017-12-22T06:07:23.968Z,0
2017-12-22T06:07:49.450Z,0
2017-12-22T06:08:14.939Z,0
2017-12-22T06:08:40.448Z,0
2017-12-22T06:09:05.946Z,0
2017-12-22T06:09:31.449Z,0
2017-12-22T06:11:00.566Z,0
2017-12-22T06:11:26.053Z,0
2017-12-22T06:11:51.522Z,0
2017-12-22T06:12:17.013Z,0
2017-12-22T06:12:42.505Z,0
2017-12-22T06:13:08.022Z,0
2017-12-22T06:13:33.515Z,0
2017-12-22T06:13:58.997Z,0
2017-12-22T06:14:24.507Z,0
2017-12-22T06:14:49.986Z,0
2017-12-22T06:15:15.486Z,0
2017-12-22T06:15:40.979Z,0
2017-12-22T06:16:06.499Z,0
2017-12-22T06:16:31.996Z,0
2017-12-22T06:16:57.512Z,0
2017-12-22T06:17:23.022Z,0
2017-12-22T06:17:48.503Z,0
2017-12-22T06:18:14.027Z,0
2017-12-22T06:18:39.527Z,0
2017-12-22T06:19:05.032Z,0
2017-12-22T06:19:30.524Z,0
2017-12-22T06:19:56.014Z,0
2017-12-22T06:20:21.541Z,0
2017-12-22T06:20:47.029Z,0
2017-12-22T06:21:12.507Z,0
2017-12-22T06:21:37.996Z,0
2017-12-22T06:22:03.490Z,0
2017-12-22T06:22:28.987Z,0
2017-12-22T06:22:54.481Z,0
2017-12-22T06:23:19.957Z,0
2017-12-22T06:23:45.450Z,0
2017-12-22T06:24:10.920Z,0
2017-12-22T06:24:36.440Z,0
2017-12-22T06:25:01.893Z,0
2017-12-22T06:25:27.413Z,0
2017-12-22T06:25:52.931Z,0
2017-12-22T06:26:18.383Z,0
2017-12-22T06:26:43.894Z,0
2017-12-22T06:27:09.380Z,0
2017-12-22T06:28:38.478Z,0
2017-12-22T06:29:03.986Z,0
2017-12-22T06:29:29.440Z,0
2017-12-22T06:29:54.912Z,0
2017-12-22T06:30:20.386Z,0
2017-12-22T06:30:45.880Z,0
2017-12-22T06:31:11.423Z,0
2017-12-22T06:31:36.903Z,0
2017-12-22T06:32:02.370Z,0
2017-12-22T06:32:27.848Z,0
2017-12-22T06:32:53.318Z,0
2017-12-22T06:33:18.817Z,0
2017-12-22T06:33:44.344Z,0
2017-12-22T06:34:09.805Z,0
2017-12-22T06:34:35.272Z,0
2017-12-22T06:35:00.801Z,0
2017-12-22T06:35:26.300Z,0
2017-12-22T06:35:51.788Z,0
2017-12-22T06:36:17.293Z,0
2017-12-22T06:36:42.778Z,0
2017-12-22T06:37:08.268Z,0
2017-12-22T06:37:33.795Z,0
2017-12-22T06:37:59.239Z,0
2017-12-22T06:38:24.746Z,0
2017-12-22T06:38:50.233Z,0
2017-12-22T06:40:14.242Z,0
2017-12-22T06:40:39.741Z,0
2017-12-22T06:41:05.239Z,0
2017-12-22T06:41:30.718Z,0
2017-12-22T06:41:56.219Z,0
2017-12-22T06:42:21.724Z,0
2017-12-22T06:42:47.230Z,0
2017-12-22T06:43:12.771Z,0
2017-12-22T06:43:38.243Z,0
2017-12-22T06:44:03.760Z,0
2017-12-22T06:44:29.240Z,0
2017-12-22T06:44:54.777Z,0
2017-12-22T06:45:20.224Z,0
2017-12-22T06:45:45.722Z,0
2017-12-22T06:46:11.228Z,0
2017-12-22T06:46:36.709Z,0
2017-12-22T06:47:02.245Z,0
2017-12-22T06:47:27.739Z,0
2017-12-22T06:47:53.269Z,0
2017-12-22T06:48:18.797Z,0
2017-12-22T06:48:44.271Z,0
2017-12-22T06:49:09.759Z,0
2017-12-22T06:49:35.264Z,0
2017-12-22T06:50:00.761Z,0
2017-12-22T06:50:26.236Z,0
2017-12-22T06:50:51.717Z,0
2017-12-22T06:51:17.203Z,0
2017-12-22T06:51:42.683Z,0
2017-12-22T06:52:08.189Z,0
2017-12-22T06:52:33.724Z,0
2017-12-22T06:52:59.208Z,0
2017-12-22T06:53:24.714Z,0
2017-12-22T06:53:50.168Z,0
2017-12-22T06:54:15.644Z,0
2017-12-22T06:54:41.125Z,0
2017-12-22T06:55:06.609Z,0
2017-12-22T06:55:32.095Z,0
2017-12-22T06:55:57.592Z,0
2017-12-22T06:56:23.083Z,0
2017-12-22T06:56:48.618Z,0
2017-12-22T06:57:14.150Z,0
2017-12-22T06:57:39.637Z,0
2017-12-22T06:58:05.119Z,0
2017-12-22T06:58:30.584Z,0
2017-12-22T06:58:56.046Z,0
2017-12-22T06:59:21.534Z,0
2017-12-22T06:59:47.026Z,0
2017-12-22T07:00:12.540Z,0
2017-12-22T07:00:38.052Z,0
2017-12-22T07:01:03.514Z,0
2017-12-22T07:01:29.024Z,0
2017-12-22T07:01:54.513Z,0
2017-12-22T07:02:20.032Z,0
2017-12-22T07:02:45.561Z,0
2017-12-22T07:03:11.048Z,0
2017-12-22T07:03:36.542Z,0
2017-12-22T07:04:02.012Z,0
2017-12-22T07:04:27.524Z,0
2017-12-22T07:04:53.018Z,0
2017-12-22T07:05:18.513Z,0
2017-12-22T07:05:43.996Z,0
2017-12-22T07:06:09.520Z,0
2017-12-22T07:06:34.971Z,0
2017-12-22T07:07:00.494Z,0
2017-12-22T07:07:25.993Z,0
2017-12-22T07:07:51.551Z,0
2017-12-22T07:08:17.026Z,0
2017-12-22T07:08:42.535Z,0
2017-12-22T07:09:08.027Z,0
2017-12-22T07:09:33.550Z,0
2017-12-22T07:09:59.016Z,0
2017-12-22T07:10:24.472Z,0
2017-12-22T07:10:50.004Z,0
2017-12-22T07:11:15.467Z,0
2017-12-22T07:11:40.917Z,0
2017-12-22T07:12:06.410Z,0
2017-12-22T07:12:31.946Z,0
2017-12-22T07:12:57.431Z,0
2017-12-22T07:13:22.908Z,0
2017-12-22T07:13:48.390Z,0
2017-12-22T07:14:13.871Z,0
2017-12-22T07:14:39.397Z,0
2017-12-22T07:15:04.898Z,0
2017-12-22T07:15:30.394Z,0
2017-12-22T07:15:55.865Z,0
2017-12-22T07:16:21.374Z,0
2017-12-22T07:16:46.851Z,0
2017-12-22T07:17:12.403Z,0
2017-12-22T07:17:37.911Z,0
2017-12-22T07:18:03.391Z,0
2017-12-22T07:18:28.906Z,0
2017-12-22T07:18:54.394Z,0
2017-12-22T07:19:19.875Z,0
2017-12-22T07:19:45.363Z,0
2017-12-22T07:20:10.881Z,0
2017-12-22T07:20:36.510Z,0
2017-12-22T07:21:01.996Z,0
2017-12-22T07:21:27.490Z,0
2017-12-22T07:21:53.009Z,0
2017-12-22T07:22:18.500Z,0
2017-12-22T07:22:44.043Z,0
2017-12-22T07:23:52.755Z,0
2017-12-22T07:24:18.253Z,0
2017-12-22T07:24:43.755Z,0
2017-12-22T07:25:09.226Z,0
2017-12-22T07:25:34.744Z,0
2017-12-22T07:26:00.267Z,0
2017-12-22T07:26:25.767Z,0
2017-12-22T07:26:51.290Z,0
2017-12-22T07:27:16.777Z,0
2017-12-22T07:27:42.257Z,0
2017-12-22T07:28:07.801Z,0
2017-12-22T07:28:33.272Z,0
2017-12-22T07:29:52.196Z,0
2017-12-22T07:30:17.694Z,0
2017-12-22T07:30:43.188Z,0
2017-12-22T07:31:08.688Z,0
2017-12-22T07:31:34.205Z,0
2017-12-22T07:31:59.706Z,0
2017-12-22T07:32:25.273Z,0
2017-12-22T07:32:50.766Z,0
2017-12-22T07:33:16.291Z,0
2017-12-22T07:33:41.769Z,0
2017-12-22T07:34:07.274Z,0
2017-12-22T07:34:32.794Z,0
2017-12-22T07:34:58.260Z,0
2017-12-22T07:35:23.777Z,0
2017-12-22T07:35:49.272Z,0
2017-12-22T07:36:14.734Z,0
2017-12-22T07:36:40.210Z,0
2017-12-22T07:37:05.721Z,0
2017-12-22T07:38:19.527Z,0
2017-12-22T07:38:45.046Z,0
2017-12-22T07:39:10.548Z,0
2017-12-22T07:39:36.030Z,0
2017-12-22T07:40:01.539Z,0
2017-12-22T07:40:27.035Z,0
2017-12-22T07:40:52.522Z,0
2017-12-22T07:41:17.980Z,0
2017-12-22T07:41:43.499Z,0
2017-12-22T07:42:09.022Z,0
2017-12-22T07:42:34.542Z,0
2017-12-22T07:43:00.026Z,0
2017-12-22T07:43:25.503Z,0
2017-12-22T07:43:51.004Z,0
2017-12-22T07:44:16.509Z,0
2017-12-22T07:44:42.008Z,0
2017-12-22T07:45:07.488Z,0
2017-12-22T07:45:33.023Z,0
2017-12-22T07:45:58.508Z,0
2017-12-22T07:46:24.015Z,0
2017-12-22T07:46:49.507Z,5
2017-12-22T07:47:14.950Z,5
2017-12-22T07:47:40.440Z,5
2017-12-22T07:48:05.924Z,5
2017-12-22T07:49:29.942Z,5
2017-12-22T07:49:55.439Z,5
2017-12-22T07:50:20.954Z,5
2017-12-22T07:50:46.423Z,5
2017-12-22T07:51:55.152Z,5
2017-12-22T07:52:20.653Z,5
2017-12-22T07:52:46.132Z,5
2017-12-22T07:53:11.629Z,5
2017-12-22T07:53:37.109Z,5
2017-12-22T07:54:02.601Z,5
2017-12-22T07:54:28.081Z,5
2017-12-22T07:54:53.568Z,5
2017-12-22T07:55:19.054Z,5
2017-12-22T07:55:44.545Z,5
2017-12-22T07:56:10.039Z,5
2017-12-22T07:56:35.547Z,5
2017-12-22T07:57:01.029Z,5
2017-12-22T07:57:26.525Z,5
2017-12-22T07:57:52.007Z,5
2017-12-22T07:58:17.515Z,5
2017-12-22T07:58:43.013Z,5
2017-12-22T07:59:08.504Z,5
2017-12-22T08:00:37.618Z,5
2017-12-22T08:01:03.102Z,5
2017-12-22T08:01:28.590Z,5
2017-12-22T08:01:54.054Z,5
2017-12-22T08:02:19.561Z,5
2017-12-22T08:02:45.049Z,5
2017-12-22T08:03:10.554Z,5
2017-12-22T08:03:36.046Z,5
2017-12-22T08:04:01.533Z,5
2017-12-22T08:04:27.045Z,5
2017-12-22T08:04:52.531Z,5
2017-12-22T08:05:18.025Z,5
2017-12-22T08:05:43.534Z,5
2017-12-22T08:06:09.033Z,5
2017-12-22T08:06:34.486Z,5
2017-12-22T08:07:00.007Z,5
2017-12-22T08:07:25.560Z,5
2017-12-22T08:07:51.053Z,10
2017-12-22T08:08:16.519Z,10
2017-12-22T08:08:42.038Z,10
2017-12-22T08:09:07.536Z,10
2017-12-22T08:10:16.261Z,10
2017-12-22T08:10:41.748Z,10
2017-12-22T08:11:07.251Z,10
2017-12-22T08:11:32.758Z,10
2017-12-22T08:11:58.257Z,10
2017-12-22T08:12:23.750Z,10
2017-12-22T08:12:49.221Z,10
2017-12-22T08:13:14.718Z,10
2017-12-22T08:14:23.425Z,10
2017-12-22T08:14:48.939Z,10
2017-12-22T08:15:14.432Z,10
2017-12-22T08:15:39.948Z,10
2017-12-22T08:16:05.451Z,10
2017-12-22T08:16:30.959Z,10
2017-12-22T08:16:56.442Z,10
2017-12-22T08:17:21.985Z,10
2017-12-22T08:17:47.542Z,10
2017-12-22T08:18:13.020Z,10
2017-12-22T08:18:38.581Z,10
2017-12-22T08:19:04.092Z,10
2017-12-22T08:19:29.591Z,10
2017-12-22T08:19:55.125Z,10
2017-12-22T08:20:20.629Z,10
2017-12-22T08:20:46.135Z,10
2017-12-22T08:21:11.598Z,10
2017-12-22T08:21:37.107Z,10
2017-12-22T08:22:02.590Z,10
2017-12-22T08:22:28.055Z,10
2017-12-22T08:22:53.568Z,10
2017-12-22T08:23:19.053Z,10
2017-12-22T08:23:44.553Z,10
2017-12-22T08:24:10.140Z,10
2017-12-22T08:24:35.611Z,10
2017-12-22T08:25:01.133Z,10
2017-12-22T08:25:26.661Z,10
2017-12-22T08:25:52.283Z,10
2017-12-22T08:26:17.710Z,10
2017-12-22T08:26:43.196Z,10
2017-12-22T08:27:08.710Z,10
2017-12-22T08:27:34.219Z,10
2017-12-22T08:27:59.693Z,10
2017-12-22T08:28:25.208Z,10
2017-12-22T08:28:50.725Z,10
2017-12-22T08:29:16.230Z,10
2017-12-22T08:29:41.717Z,10
2017-12-22T08:30:07.198Z,15
2017-12-22T08:30:32.689Z,15
2017-12-22T08:30:58.359Z,15
2017-12-22T08:31:23.749Z,15
2017-12-22T08:31:49.240Z,15
2017-12-22T08:32:14.771Z,15
2017-12-22T08:32:40.242Z,15
2017-12-22T08:33:05.713Z,15
2017-12-22T08:33:31.229Z,15
2017-12-22T08:33:56.715Z,15
2017-12-22T08:34:22.238Z,15
2017-12-22T08:34:47.743Z,15
2017-12-22T08:35:13.239Z,15
2017-12-22T08:35:38.742Z,20
2017-12-22T08:36:04.303Z,20
2017-12-22T08:36:29.819Z,20
2017-12-22T08:36:55.309Z,20
2017-12-22T08:37:20.803Z,20
2017-12-22T08:37:46.295Z,20
2017-12-22T08:38:11.757Z,25
2017-12-22T08:38:37.284Z,25
2017-12-22T08:39:02.784Z,25
2017-12-22T08:39:28.250Z,25
2017-12-22T08:39:53.766Z,25
2017-12-22T08:40:19.256Z,25
2017-12-22T08:40:44.731Z,25
2017-12-22T08:41:10.212Z,25
2017-12-22T08:41:35.771Z,30
2017-12-22T08:42:01.188Z,30
2017-12-22T08:42:26.865Z,30
2017-12-22T08:42:52.344Z,30
2017-12-22T08:43:17.837Z,35
2017-12-22T08:43:43.387Z,35
2017-12-22T08:44:57.191Z,35
2017-12-22T08:45:22.666Z,35
2017-12-22T08:45:48.172Z,35
2017-12-22T08:46:13.681Z,35
2017-12-22T08:46:39.201Z,35
2017-12-22T08:47:04.706Z,40
2017-12-22T08:47:30.209Z,40
2017-12-22T08:47:55.698Z,40
2017-12-22T08:48:21.189Z,40
2017-12-22T08:48:46.733Z,40
2017-12-22T08:49:12.236Z,40
2017-12-22T08:49:37.708Z,40
2017-12-22T08:50:03.220Z,40
2017-12-22T08:50:28.714Z,40
2017-12-22T08:50:54.190Z,40
2017-12-22T08:51:19.719Z,35
2017-12-22T08:51:45.253Z,35
2017-12-22T08:52:10.756Z,35
2017-12-22T08:52:36.261Z,35
2017-12-22T08:53:01.729Z,35
2017-12-22T08:54:20.682Z,40
2017-12-22T08:54:46.216Z,40
2017-12-22T08:55:11.712Z,40
2017-12-22T08:55:37.222Z,40
2017-12-22T08:56:02.720Z,40
2017-12-22T08:56:28.238Z,35
2017-12-22T08:56:53.725Z,35
2017-12-22T08:57:19.239Z,35
2017-12-22T08:57:44.723Z,35
2017-12-22T08:58:10.225Z,35
2017-12-22T08:58:35.702Z,35
2017-12-22T08:59:01.239Z,35
2017-12-22T08:59:26.768Z,35
2017-12-22T08:59:52.288Z,35
2017-12-22T09:01:10.712Z,30
2017-12-22T09:01:36.179Z,30
2017-12-22T09:02:01.701Z,30
2017-12-22T09:02:27.224Z,30
2017-12-22T09:02:52.726Z,30
2017-12-22T09:03:18.205Z,30
2017-12-22T09:03:43.684Z,25
2017-12-22T09:04:09.154Z,25
2017-12-22T09:04:34.645Z,25
2017-12-22T09:05:00.147Z,25
2017-12-22T09:05:25.688Z,25
2017-12-22T09:05:51.155Z,25
2017-12-22T09:06:16.676Z,25
2017-12-22T09:06:42.118Z,25
2017-12-22T09:07:07.626Z,25
2017-12-22T09:07:33.132Z,20
2017-12-22T09:07:58.635Z,20
2017-12-22T09:08:24.156Z,20
2017-12-22T09:08:49.621Z,20
2017-12-22T09:09:15.129Z,20
2017-12-22T09:09:40.639Z,20
2017-12-22T09:10:06.124Z,25
2017-12-22T09:10:31.629Z,25
2017-12-22T09:10:57.138Z,25
2017-12-22T09:11:22.638Z,25
2017-12-22T09:11:48.137Z,25
2017-12-22T09:13:11.648Z,25
2017-12-22T09:13:37.137Z,25
2017-12-22T09:14:02.654Z,25
2017-12-22T09:14:28.135Z,25
2017-12-22T09:14:53.672Z,25
2017-12-22T09:16:17.249Z,25
2017-12-22T09:16:42.753Z,30
2017-12-22T09:17:08.227Z,30
2017-12-22T09:17:33.720Z,30
2017-12-22T09:17:59.191Z,30
2017-12-22T09:18:24.667Z,30
2017-12-22T09:18:50.166Z,35
2017-12-22T09:19:15.719Z,35
2017-12-22T09:19:41.224Z,35
2017-12-22T09:20:06.689Z,40
2017-12-22T09:20:32.236Z,40
2017-12-22T09:20:57.709Z,40
2017-12-22T09:21:23.228Z,45
2017-12-22T09:22:47.239Z,45
2017-12-22T09:23:12.740Z,50
2017-12-22T09:23:38.223Z,50
2017-12-22T09:24:03.725Z,50
2017-12-22T09:24:29.223Z,50
2017-12-22T09:24:54.724Z,50
2017-12-22T09:25:20.206Z,50
2017-12-22T09:25:45.687Z,50
2017-12-22T09:26:11.199Z,50
2017-12-22T09:26:36.724Z,50
2017-12-22T09:27:02.201Z,55
2017-12-22T09:27:27.655Z,55
2017-12-22T09:27:53.134Z,55
2017-12-22T09:28:18.635Z,55
2017-12-22T09:29:27.355Z,60
2017-12-22T09:29:52.834Z,60
2017-12-22T09:30:18.326Z,65
2017-12-22T09:30:43.772Z,65
2017-12-22T09:31:09.300Z,65
2017-12-22T09:31:34.782Z,65
2017-12-22T09:32:00.303Z,70
2017-12-22T09:32:25.775Z,70
2017-12-22T09:32:51.294Z,65
2017-12-22T09:33:16.786Z,65
2017-12-22T09:33:42.292Z,70
2017-12-22T09:34:07.809Z,70
2017-12-22T09:34:33.307Z,70
2017-12-22T09:34:58.840Z,70
2017-12-22T09:35:24.414Z,70
2017-12-22T09:35:49.902Z,65
2017-12-22T09:36:15.370Z,65
2017-12-22T09:36:40.871Z,65
2017-12-22T09:37:06.369Z,65
2017-12-22T09:37:31.858Z,65
2017-12-22T09:37:57.368Z,65
2017-12-22T09:38:22.844Z,70
2017-12-22T09:38:48.370Z,70
2017-12-22T09:39:13.849Z,70
2017-12-22T09:39:39.342Z,70
2017-12-22T09:40:04.838Z,70
2017-12-22T09:41:13.044Z,70
2017-12-22T09:41:38.555Z,70
2017-12-22T09:42:04.081Z,65
2017-12-22T09:42:29.575Z,70
2017-12-22T09:42:55.072Z,70
2017-12-22T09:43:20.556Z,70
2017-12-22T09:43:46.147Z,70
2017-12-22T09:44:11.614Z,75
2017-12-22T09:44:37.103Z,75
2017-12-22T09:45:02.640Z,75
2017-12-22T09:45:28.115Z,70
2017-12-22T09:45:53.658Z,70
2017-12-22T09:46:19.108Z,70
2017-12-22T09:46:44.632Z,70
2017-12-22T09:48:13.229Z,70
2017-12-22T09:48:38.721Z,70
2017-12-22T09:49:04.205Z,70
2017-12-22T09:49:29.710Z,70
2017-12-22T09:49:55.222Z,70
2017-12-22T09:50:20.711Z,70
2017-12-22T09:50:46.216Z,70
2017-12-22T09:51:11.686Z,75
2017-12-22T09:51:37.195Z,75
2017-12-22T09:52:02.684Z,75
2017-12-22T09:52:28.178Z,80
2017-12-22T09:52:53.713Z,80
2017-12-22T09:53:19.202Z,80
2017-12-22T09:53:44.764Z,80
2017-12-22T09:54:10.227Z,85
2017-12-22T09:54:35.734Z,85
2017-12-22T09:55:01.222Z,85
2017-12-22T09:55:26.747Z,85
2017-12-22T09:55:52.252Z,80
2017-12-22T09:56:17.752Z,80
2017-12-22T09:56:43.261Z,75
2017-12-22T09:57:08.759Z,70
2017-12-22T09:57:34.268Z,65
2017-12-22T09:57:59.749Z,65
2017-12-22T09:58:25.252Z,65
2017-12-22T09:58:50.758Z,65
2017-12-22T09:59:16.258Z,65
2017-12-22T10:00:39.811Z,65
2017-12-22T10:01:05.321Z,65
2017-12-22T10:01:30.817Z,65
2017-12-22T10:01:56.314Z,65
2017-12-22T10:03:04.504Z,70
2017-12-22T10:03:29.987Z,70
2017-12-22T10:03:55.501Z,65
2017-12-22T10:04:21.008Z,65
2017-12-22T10:04:46.491Z,65
2017-12-22T10:05:11.983Z,65
2017-12-22T10:05:37.464Z,65
2017-12-22T10:06:02.989Z,70
2017-12-22T10:06:28.464Z,70
2017-12-22T10:06:53.951Z,70
2017-12-22T10:07:19.475Z,70
2017-12-22T10:08:48.575Z,65
2017-12-22T10:09:14.050Z,65
2017-12-22T10:09:39.551Z,65
2017-12-22T10:10:05.061Z,65
2017-12-22T10:10:30.544Z,65
2017-12-22T10:10:56.023Z,65
2017-12-22T10:11:21.512Z,65
2017-12-22T10:11:46.981Z,65
2017-12-22T10:12:12.473Z,65
2017-12-22T10:12:37.945Z,65
2017-12-22T10:13:03.460Z,65
2017-12-22T10:13:28.959Z,60
2017-12-22T10:13:54.445Z,60
2017-12-22T10:14:19.925Z,60
2017-12-22T10:14:45.421Z,60
2017-12-22T10:15:10.935Z,60
2017-12-22T10:15:36.438Z,60
2017-12-22T10:16:01.918Z,60
2017-12-22T10:17:30.523Z,60
2017-12-22T10:17:56.017Z,65
2017-12-22T10:18:21.502Z,65
2017-12-22T10:18:46.983Z,70
2017-12-22T10:19:12.488Z,70
2017-12-22T10:19:37.988Z,65
2017-12-22T10:20:03.458Z,65
2017-12-22T10:20:28.937Z,60
2017-12-22T10:20:54.445Z,60
2017-12-22T10:21:19.949Z,55
2017-12-22T10:21:45.438Z,55
2017-12-22T10:22:10.939Z,60
2017-12-22T10:22:36.401Z,60
2017-12-22T10:23:01.903Z,60
2017-12-22T10:23:27.403Z,60
2017-12-22T10:23:52.917Z,65
2017-12-22T10:24:18.436Z,70
2017-12-22T10:24:43.926Z,75
2017-12-22T10:25:09.425Z,80
2017-12-22T10:25:34.929Z,80
2017-12-22T10:26:00.416Z,80
2017-12-22T10:26:25.909Z,80
2017-12-22T10:26:51.396Z,80
2017-12-22T10:28:20.034Z,75
2017-12-22T10:28:45.531Z,75
2017-12-22T10:29:11.047Z,75
2017-12-22T10:29:36.543Z,75
2017-12-22T10:30:02.023Z,75
2017-12-22T10:30:27.513Z,70
2017-12-22T10:30:52.982Z,70
2017-12-22T10:32:21.920Z,75
2017-12-22T10:32:47.399Z,75
2017-12-22T10:33:12.950Z,80
2017-12-22T10:33:38.425Z,80
2017-12-22T10:34:03.915Z,75
2017-12-22T10:34:29.450Z,75
2017-12-22T10:34:54.916Z,75
2017-12-22T10:35:20.442Z,75
2017-12-22T10:35:45.986Z,75
2017-12-22T10:36:11.444Z,75
2017-12-22T10:36:36.893Z,70
2017-12-22T10:37:02.388Z,70
2017-12-22T10:37:27.891Z,70
2017-12-22T10:37:53.385Z,70
2017-12-22T10:38:18.870Z,75
2017-12-22T10:39:32.147Z,80
2017-12-22T10:39:57.645Z,80
2017-12-22T10:40:23.130Z,75
2017-12-22T10:40:48.677Z,80
2017-12-22T10:41:14.157Z,80
2017-12-22T10:41:39.654Z,80
2017-12-22T10:42:05.171Z,75
2017-12-22T10:42:30.681Z,75
2017-12-22T10:42:56.143Z,70
2017-12-22T10:43:21.658Z,70
2017-12-22T10:43:47.132Z,70
2017-12-22T10:44:12.617Z,75
2017-12-22T10:44:38.084Z,75
2017-12-22T10:45:03.574Z,75
2017-12-22T10:45:29.101Z,75
2017-12-22T10:45:54.607Z,80
2017-12-22T10:46:20.068Z,80
2017-12-22T10:46:45.572Z,80
2017-12-22T10:47:11.055Z,80
2017-12-22T10:47:36.577Z,80
2017-12-22T10:48:02.090Z,80
2017-12-22T10:48:27.571Z,80
2017-12-22T10:48:53.031Z,80
2017-12-22T10:49:18.532Z,80
2017-12-22T10:49:44.013Z,80
2017-12-22T10:50:09.521Z,80
2017-12-22T10:50:35.025Z,85
2017-12-22T10:51:00.481Z,85
2017-12-22T10:51:25.938Z,80
2017-12-22T10:51:51.449Z,75
2017-12-22T10:52:16.934Z,70
2017-12-22T10:52:42.421Z,70
2017-12-22T10:53:07.920Z,70
2017-12-22T10:53:33.446Z,65
2017-12-22T10:53:58.936Z,65
2017-12-22T10:54:24.436Z,65
2017-12-22T10:54:49.931Z,65
2017-12-22T10:55:15.412Z,70
2017-12-22T10:55:40.909Z,70
2017-12-22T10:56:06.419Z,70
2017-12-22T10:56:31.911Z,70
2017-12-22T10:56:57.407Z,65
2017-12-22T10:57:22.898Z,65
2017-12-22T10:57:48.395Z,65
2017-12-22T10:58:13.919Z,60
2017-12-22T10:58:39.457Z,60
2017-12-22T10:59:04.956Z,60
2017-12-22T10:59:30.440Z,60
2017-12-22T10:59:55.947Z,60
2017-12-22T11:00:21.474Z,65
2017-12-22T11:00:46.977Z,65
2017-12-22T11:01:12.434Z,70
2017-12-22T11:01:37.945Z,70
2017-12-22T11:02:03.438Z,70
2017-12-22T11:02:28.954Z,70
2017-12-22T11:02:54.415Z,70
2017-12-22T11:04:02.651Z,65
2017-12-22T11:04:28.124Z,65
2017-12-22T11:04:53.631Z,60
2017-12-22T11:05:19.108Z,65
2017-12-22T11:05:44.605Z,65
2017-12-22T11:06:10.094Z,65
2017-12-22T11:06:35.601Z,65
2017-12-22T11:07:01.093Z,60
2017-12-22T11:07:26.561Z,55
2017-12-22T11:08:55.165Z,60
2017-12-22T11:09:20.658Z,60
2017-12-22T11:09:46.168Z,55
2017-12-22T11:10:11.685Z,55
2017-12-22T11:10:37.178Z,50
2017-12-22T11:11:02.708Z,50
2017-12-22T11:11:28.190Z,50
2017-12-22T11:11:53.680Z,50
2017-12-22T11:12:19.191Z,45
2017-12-22T11:13:48.335Z,40
2017-12-22T11:14:13.831Z,40
2017-12-22T11:14:39.331Z,40
2017-12-22T11:15:04.826Z,40
2017-12-22T11:15:30.320Z,40
2017-12-22T11:15:55.783Z,40
2017-12-22T11:16:21.275Z,40
2017-12-22T11:16:46.782Z,40
2017-12-22T11:17:12.291Z,40
2017-12-22T11:17:37.771Z,40
2017-12-22T11:18:03.263Z,45
2017-12-22T11:18:28.798Z,45
2017-12-22T11:18:54.299Z,45
2017-12-22T11:19:19.805Z,45
2017-12-22T11:19:45.338Z,45
2017-12-22T11:20:10.856Z,50
2017-12-22T11:20:36.340Z,50
2017-12-22T11:21:01.805Z,55
2017-12-22T11:21:27.298Z,60
2017-12-22T11:21:52.777Z,65
2017-12-22T11:22:18.285Z,70
2017-12-22T11:22:43.790Z,75
2017-12-22T11:23:09.251Z,80
2017-12-22T11:23:34.750Z,85
2017-12-22T11:24:00.258Z,85
2017-12-22T11:24:25.733Z,85
2017-12-22T11:24:51.223Z,80
2017-12-22T11:25:16.713Z,80
2017-12-22T11:25:42.177Z,75
2017-12-22T11:26:07.671Z,75
2017-12-22T11:26:33.123Z,75
2017-12-22T11:27:56.633Z,75
2017-12-22T11:28:22.153Z,75
2017-12-22T11:28:47.640Z,70
2017-12-22T11:29:13.136Z,70
2017-12-22T11:29:38.635Z,70
2017-12-22T11:30:04.137Z,70
2017-12-22T11:30:29.633Z,65
2017-12-22T11:30:55.120Z,60
2017-12-22T11:31:20.602Z,60
2017-12-22T11:31:46.119Z,55
2017-12-22T11:32:11.561Z,60
2017-12-22T11:32:37.066Z,60
2017-12-22T11:33:02.538Z,65
2017-12-22T11:33:28.044Z,70
2017-12-22T11:34:56.686Z,75
2017-12-22T11:35:22.174Z,75
2017-12-22T11:35:47.677Z,80
2017-12-22T11:36:13.190Z,80
2017-12-22T11:36:38.732Z,80
2017-12-22T11:37:04.218Z,80
2017-12-22T11:37:29.706Z,80
2017-12-22T11:37:55.171Z,75
2017-12-22T11:38:20.668Z,75
2017-12-22T11:38:46.154Z,75
2017-12-22T11:39:11.659Z,75
2017-12-22T11:39:37.134Z,80
2017-12-22T11:40:02.639Z,75
2017-12-22T11:40:28.111Z,75
2017-12-22T11:40:53.635Z,80
2017-12-22T11:41:19.123Z,85
2017-12-22T11:41:44.595Z,85
2017-12-22T11:42:10.108Z,90
2017-12-22T11:42:35.629Z,90
2017-12-22T11:43:01.124Z,85
2017-12-22T11:43:26.609Z,85
2017-12-22T11:44:50.146Z,85